createdAt,value
2023-03-31T00:00:02.039Z,98382.50
2023-03-31T00:02:28.556Z,98381.03
2023-03-31T00:04:55.036Z,98372.34
2023-03-31T00:07:21.766Z,98379.06
2023-03-31T00:09:48.660Z,98371.59
2023-03-31T00:12:16.278Z,98362.16
2023-03-31T00:14:43.922Z,98354.69
2023-03-31T00:17:10.772Z,98361.56
2023-03-31T00:19:37.314Z,98343.44
2023-03-31T00:22:03.802Z,98353.06
2023-03-31T00:24:30.197Z,98344.28
2023-03-31T00:26:56.517Z,98351.75
2023-03-31T00:29:23.027Z,98330.34
2023-03-31T00:31:49.500Z,98338.91
2023-03-31T00:34:15.830Z,98319.53
2023-03-31T00:36:42.399Z,98317.25
2023-03-31T00:39:09.564Z,98316.25
2023-03-31T00:41:38.000Z,98320.69
2023-03-31T00:44:25.215Z,98310.94
2023-03-31T00:47:15.535Z,98300.22
2023-03-31T00:49:47.326Z,98299.97
2023-03-31T00:52:26.341Z,98312.06
2023-03-31T00:55:00.447Z,98289.41
2023-03-31T00:57:29.100Z,98298.88
2023-03-31T01:00:04.819Z,98289.34
2023-03-31T01:02:31.269Z,98284.31
2023-03-31T01:05:00.334Z,98282.91
2023-03-31T01:07:32.534Z,98279.75
2023-03-31T01:10:02.697Z,98278.72
2023-03-31T01:12:30.697Z,98286.00
2023-03-31T01:14:57.302Z,98270.22
2023-03-31T01:17:24.067Z,98272.59
2023-03-31T01:20:24.636Z,98275.34
2023-03-31T01:23:25.234Z,98277.84
2023-03-31T01:26:33.681Z,98277.38
2023-03-31T01:29:21.994Z,98279.13
2023-03-31T01:32:06.830Z,98271.81
2023-03-31T01:35:01.472Z,98254.66
2023-03-31T01:38:05.101Z,98260.53
2023-03-31T01:40:37.611Z,98261.94
2023-03-31T01:43:14.876Z,98251.03
2023-03-31T01:46:01.289Z,98250.41
2023-03-31T01:48:33.526Z,98236.53
2023-03-31T01:51:05.619Z,98229.31
2023-03-31T01:53:43.653Z,98231.00
2023-03-31T01:56:25.293Z,98235.72
2023-03-31T01:59:08.661Z,98222.38
2023-03-31T02:01:41.557Z,98218.19
2023-03-31T02:04:15.117Z,98202.75
2023-03-31T02:06:53.306Z,98208.88
2023-03-31T02:09:24.832Z,98196.00
2023-03-31T02:11:53.213Z,98190.63
2023-03-31T02:14:24.380Z,98189.19
2023-03-31T02:16:55.558Z,98180.44
2023-03-31T02:19:22.370Z,98178.34
2023-03-31T02:21:49.882Z,98179.31
2023-03-31T02:24:19.533Z,98178.09
2023-03-31T02:26:53.903Z,98162.81
2023-03-31T02:29:20.866Z,98157.81
2023-03-31T02:32:01.487Z,98159.88
2023-03-31T02:34:27.995Z,98161.16
2023-03-31T02:36:54.530Z,98156.56
2023-03-31T02:39:28.187Z,98153.06
2023-03-31T02:41:54.923Z,98151.91
2023-03-31T02:44:21.412Z,98157.91
2023-03-31T02:46:48.387Z,98148.31
2023-03-31T02:49:16.356Z,98152.81
2023-03-31T02:52:08.248Z,98151.66
2023-03-31T02:54:57.194Z,98153.53
2023-03-31T02:57:48.733Z,98156.44
2023-03-31T03:01:03.550Z,98150.91
2023-03-31T03:03:58.231Z,98147.38
2023-03-31T03:06:49.898Z,98129.72
2023-03-31T03:09:32.644Z,98131.28
2023-03-31T03:12:17.003Z,98129.47
2023-03-31T03:14:57.260Z,98122.41
2023-03-31T03:17:29.949Z,98121.72
2023-03-31T03:20:01.067Z,98127.34
2023-03-31T03:22:27.806Z,98116.75
2023-03-31T03:24:54.307Z,98109.41
2023-03-31T03:27:20.924Z,98101.06
2023-03-31T03:29:47.229Z,98100.97
2023-03-31T03:32:13.890Z,98091.50
2023-03-31T03:34:40.402Z,98099.75
2023-03-31T03:37:06.771Z,98093.16
2023-03-31T03:39:33.110Z,98082.50
2023-03-31T03:41:59.502Z,98077.66
2023-03-31T03:44:25.791Z,98075.38
2023-03-31T03:46:53.377Z,98076.44
2023-03-31T03:49:19.806Z,98071.81
2023-03-31T03:51:46.477Z,98059.78
2023-03-31T03:54:12.988Z,98053.66
2023-03-31T03:56:39.294Z,98057.06
2023-03-31T03:59:05.662Z,98060.28
2023-03-31T04:01:31.948Z,98050.16
2023-03-31T04:03:58.433Z,98039.91
2023-03-31T04:06:24.829Z,98027.09
2023-03-31T04:08:51.116Z,98026.47
2023-03-31T04:11:19.141Z,98015.28
2023-03-31T04:13:46.716Z,98023.31
2023-03-31T04:16:13.612Z,98003.44
2023-03-31T04:18:40.302Z,97998.84
2023-03-31T04:21:06.746Z,97996.03
2023-03-31T04:23:34.300Z,97987.16
2023-03-31T04:26:00.836Z,97981.34
2023-03-31T04:28:27.531Z,97970.69
2023-03-31T04:30:53.830Z,97965.72
2023-03-31T04:33:21.070Z,97955.75
2023-03-31T04:35:47.543Z,97943.59
2023-03-31T04:38:14.195Z,97942.03
2023-03-31T04:40:40.496Z,97927.72
2023-03-31T04:43:06.965Z,97912.34
2023-03-31T04:45:33.761Z,97903.88
2023-03-31T04:48:00.373Z,97916.13
2023-03-31T04:50:26.818Z,97911.13
2023-03-31T04:52:53.152Z,97905.66
2023-03-31T04:55:19.632Z,97923.53
2023-03-31T04:57:46.151Z,97908.56
2023-03-31T05:00:13.281Z,97917.03
2023-03-31T05:02:39.768Z,97913.63
2023-03-31T05:05:06.383Z,97923.81
2023-03-31T05:07:32.793Z,97918.78
2023-03-31T05:09:59.283Z,97922.47
2023-03-31T05:12:25.763Z,97930.94
2023-03-31T05:14:52.295Z,97920.94
2023-03-31T05:17:18.636Z,97923.94
2023-03-31T05:19:45.153Z,97913.38
2023-03-31T05:22:11.456Z,97926.41
2023-03-31T05:24:38.054Z,97907.75
2023-03-31T05:27:04.429Z,97897.97
2023-03-31T05:29:30.825Z,97909.81
2023-03-31T05:31:57.207Z,97882.78
2023-03-31T05:34:23.640Z,97871.84
2023-03-31T05:36:56.143Z,97856.94
2023-03-31T05:39:22.526Z,97841.03
2023-03-31T05:41:48.890Z,97857.81
2023-03-31T05:44:16.124Z,97863.63
2023-03-31T05:46:42.750Z,97871.44
2023-03-31T05:49:09.462Z,97850.94
2023-03-31T05:51:35.899Z,97854.47
2023-03-31T05:54:02.325Z,97854.19
2023-03-31T05:56:28.694Z,97855.88
2023-03-31T05:58:55.096Z,97848.69
2023-03-31T06:01:22.247Z,97833.88
2023-03-31T06:03:49.502Z,97837.63
2023-03-31T06:06:16.302Z,97828.06
2023-03-31T06:08:45.038Z,97838.16
2023-03-31T06:11:19.726Z,97837.88
2023-03-31T06:13:47.624Z,97831.41
2023-03-31T06:16:15.758Z,97830.41
2023-03-31T06:19:00.589Z,97823.63
2023-03-31T06:21:29.526Z,97791.94
2023-03-31T06:24:00.273Z,97813.38
2023-03-31T06:26:27.624Z,97801.34
2023-03-31T06:29:07.791Z,97806.44
2023-03-31T06:32:29.707Z,97802.59
2023-03-31T06:34:37.720Z,97779.97
2023-03-31T06:37:15.210Z,97808.25
2023-03-31T06:39:48.272Z,97771.69
2023-03-31T06:42:15.831Z,97796.59
2023-03-31T06:44:42.512Z,97785.53
2023-03-31T06:47:10.154Z,97786.63
2023-03-31T06:49:36.509Z,97794.09
2023-03-31T06:52:03.405Z,97795.75
2023-03-31T06:54:30.637Z,97762.78
2023-03-31T06:56:58.201Z,97788.38
2023-03-31T06:59:26.347Z,97790.63
2023-03-31T07:01:52.929Z,97788.94
2023-03-31T07:04:20.015Z,97787.34
2023-03-31T07:06:46.338Z,97786.66
2023-03-31T07:09:12.671Z,97785.06
2023-03-31T07:11:39.309Z,97769.72
2023-03-31T07:14:05.620Z,97779.78
2023-03-31T07:16:32.132Z,97769.31
2023-03-31T07:18:58.488Z,97774.16
2023-03-31T07:21:27.121Z,97762.50
2023-03-31T07:23:54.156Z,97760.75
2023-03-31T07:26:22.827Z,97763.97
2023-03-31T07:28:49.267Z,97762.50
2023-03-31T07:31:15.966Z,97765.44
2023-03-31T07:33:45.557Z,97756.75
2023-03-31T07:36:13.965Z,97740.38
2023-03-31T07:38:43.065Z,97746.19
2023-03-31T07:41:15.204Z,97738.19
2023-03-31T07:43:41.952Z,97727.66
2023-03-31T07:46:16.138Z,97734.97
2023-03-31T07:48:42.738Z,97730.41
2023-03-31T07:51:09.122Z,97713.38
2023-03-31T07:53:36.813Z,97721.81
2023-03-31T07:56:04.484Z,97710.34
2023-03-31T07:58:31.116Z,97710.06
2023-03-31T08:00:58.087Z,97706.72
2023-03-31T08:03:25.201Z,97684.47
2023-03-31T08:06:19.210Z,97688.59
2023-03-31T08:08:46.283Z,97664.50
2023-03-31T08:11:13.345Z,97678.94
2023-03-31T08:13:39.766Z,97666.72
2023-03-31T08:16:06.792Z,97667.56
2023-03-31T08:18:33.546Z,97677.41
2023-03-31T08:21:00.640Z,97655.09
2023-03-31T08:23:27.003Z,97671.16
2023-03-31T08:25:53.694Z,97671.00
2023-03-31T08:28:20.188Z,97662.41
2023-03-31T08:30:47.555Z,97664.94
2023-03-31T08:33:14.186Z,97645.56
2023-03-31T08:35:40.947Z,97666.72
2023-03-31T08:38:07.348Z,97654.00
2023-03-31T08:40:34.707Z,97653.44
2023-03-31T08:43:31.042Z,97642.53
2023-03-31T08:45:57.423Z,97655.66
2023-03-31T08:48:28.880Z,97645.44
2023-03-31T08:51:00.562Z,97644.31
2023-03-31T08:53:31.980Z,97643.19
2023-03-31T08:55:59.356Z,97643.78
2023-03-31T08:58:42.312Z,97635.75
2023-03-31T09:01:52.252Z,97637.53
2023-03-31T09:05:04.594Z,97630.47
2023-03-31T09:07:42.101Z,97634.63
2023-03-31T09:10:33.290Z,97627.56
2023-03-31T09:13:17.845Z,97628.50
2023-03-31T09:15:53.798Z,97629.22
2023-03-31T09:18:33.469Z,97613.19
2023-03-31T09:21:30.899Z,97621.38
2023-03-31T09:24:19.688Z,97623.13
2023-03-31T09:26:46.101Z,97623.56
2023-03-31T09:29:21.390Z,97609.63
2023-03-31T09:31:47.888Z,97607.22
2023-03-31T09:34:19.115Z,97592.28
2023-03-31T09:36:45.503Z,97580.13
2023-03-31T09:39:14.577Z,97571.41
2023-03-31T09:41:45.574Z,97558.13
2023-03-31T09:44:26.409Z,97550.53
2023-03-31T09:46:54.089Z,97546.09
2023-03-31T09:49:24.239Z,97550.63
2023-03-31T09:52:05.533Z,97552.84
2023-03-31T09:54:37.914Z,97559.09
2023-03-31T09:57:14.834Z,97544.94
2023-03-31T09:59:41.871Z,97537.88
2023-03-31T10:02:30.264Z,97536.66
2023-03-31T10:04:56.748Z,97535.56
2023-03-31T10:07:25.118Z,97528.94
2023-03-31T10:09:54.361Z,97539.16
2023-03-31T10:12:24.145Z,97519.41
2023-03-31T10:14:53.575Z,97526.16
2023-03-31T10:17:22.800Z,97527.84
2023-03-31T10:19:54.048Z,97516.59
2023-03-31T10:22:23.342Z,97505.78
2023-03-31T10:24:53.018Z,97507.31
2023-03-31T10:27:33.210Z,97495.38
2023-03-31T10:30:02.480Z,97497.84
2023-03-31T10:32:33.544Z,97485.25
2023-03-31T10:35:07.453Z,97482.00
2023-03-31T10:37:36.501Z,97475.44
2023-03-31T10:40:14.763Z,97463.81
2023-03-31T10:42:45.711Z,97462.84
2023-03-31T10:45:20.367Z,97459.56
2023-03-31T10:47:55.291Z,97464.66
2023-03-31T10:50:27.923Z,97459.25
2023-03-31T10:53:02.243Z,97458.09
2023-03-31T10:55:38.758Z,97448.00
2023-03-31T10:58:23.188Z,97442.44
2023-03-31T11:00:56.320Z,97440.59
2023-03-31T11:04:03.363Z,97430.25
2023-03-31T11:06:37.109Z,97437.03
2023-03-31T11:09:40.731Z,97427.38
2023-03-31T11:12:30.912Z,97426.66
2023-03-31T11:15:08.828Z,97430.72
2023-03-31T11:18:00.162Z,97418.00
2023-03-31T11:20:50.458Z,97421.00
2023-03-31T11:23:39.143Z,97425.59
2023-03-31T11:26:09.656Z,97424.56
2023-03-31T11:29:03.409Z,97418.25
2023-03-31T11:31:40.077Z,97409.94
2023-03-31T11:34:26.656Z,97412.22
2023-03-31T11:37:22.498Z,97402.91
2023-03-31T11:40:01.425Z,97396.66
2023-03-31T11:42:36.800Z,97388.94
2023-03-31T11:45:14.752Z,97389.53
2023-03-31T11:47:44.834Z,97376.91
2023-03-31T11:50:14.810Z,97380.38
2023-03-31T11:52:47.086Z,97373.03
2023-03-31T11:55:24.354Z,97383.63
2023-03-31T11:57:56.417Z,97385.38
2023-03-31T12:00:51.607Z,97380.25
2023-03-31T12:03:39.471Z,97386.38
2023-03-31T12:06:15.931Z,97388.59
2023-03-31T12:09:05.027Z,97377.56
2023-03-31T12:11:40.876Z,97398.84
2023-03-31T12:14:40.741Z,97393.91
2023-03-31T12:17:16.852Z,97389.03
2023-03-31T12:19:49.050Z,97394.78
2023-03-31T12:22:29.744Z,97397.63
2023-03-31T12:24:56.211Z,97410.47
2023-03-31T12:27:35.123Z,97432.84
2023-03-31T12:30:07.693Z,97414.19
2023-03-31T12:32:39.866Z,97439.03
2023-03-31T12:35:18.316Z,97421.03
2023-03-31T12:37:55.599Z,97432.97
2023-03-31T12:40:38.123Z,97428.50
2023-03-31T12:43:26.687Z,97430.75
2023-03-31T12:46:06.309Z,97422.66
2023-03-31T12:48:54.820Z,97423.63
2023-03-31T12:51:59.560Z,97435.72
2023-03-31T12:54:49.866Z,97454.63
2023-03-31T12:57:24.581Z,97442.38
2023-03-31T13:00:06.764Z,97464.75
2023-03-31T13:02:33.501Z,97445.97
2023-03-31T13:04:59.958Z,97446.22
2023-03-31T13:07:29.221Z,97446.22
2023-03-31T13:10:20.069Z,97420.66
2023-03-31T13:13:03.189Z,97428.09
2023-03-31T13:15:30.620Z,97430.09
2023-03-31T13:18:02.899Z,97414.00
2023-03-31T13:20:41.484Z,97414.09
2023-03-31T13:23:24.510Z,97406.88
2023-03-31T13:25:55.542Z,97416.25
2023-03-31T13:28:21.934Z,97410.25
2023-03-31T13:30:55.370Z,97417.78
2023-03-31T13:33:32.679Z,97424.41
2023-03-31T13:36:17.465Z,97439.09
2023-03-31T13:39:05.114Z,97440.22
2023-03-31T13:41:42.280Z,97420.06
2023-03-31T13:44:46.544Z,97418.00
2023-03-31T13:47:37.263Z,97422.84
2023-03-31T13:50:34.766Z,97424.25
2023-03-31T13:53:46.668Z,97415.16
2023-03-31T13:56:43.778Z,97416.59
2023-03-31T13:59:28.826Z,97412.31
2023-03-31T14:02:24.862Z,97407.00
2023-03-31T14:05:01.233Z,97405.31
2023-03-31T14:07:48.787Z,97413.16
2023-03-31T14:10:37.469Z,97406.13
2023-03-31T14:13:25.127Z,97418.97
2023-03-31T14:15:57.685Z,97395.47
2023-03-31T14:18:36.551Z,97403.41
2023-03-31T14:21:12.322Z,97400.75
2023-03-31T14:23:59.586Z,97390.50
2023-03-31T14:26:46.480Z,97387.34
2023-03-31T14:29:22.127Z,97378.78
2023-03-31T14:32:17.526Z,97380.28
2023-03-31T14:34:59.933Z,97386.50
2023-03-31T14:37:27.140Z,97385.38
2023-03-31T14:39:55.297Z,97376.31
2023-03-31T14:42:26.148Z,97375.72
2023-03-31T14:45:03.923Z,97391.09
2023-03-31T14:47:30.372Z,97390.69
2023-03-31T14:50:09.012Z,97383.41
2023-03-31T14:52:35.694Z,97406.84
2023-03-31T14:55:02.025Z,97402.38
2023-03-31T14:57:37.005Z,97373.31
2023-03-31T15:00:09.031Z,97373.78
2023-03-31T15:02:40.947Z,97368.41
2023-03-31T15:05:10.892Z,97368.63
2023-03-31T15:07:40.855Z,97355.31
2023-03-31T15:10:08.038Z,97358.22
2023-03-31T15:12:34.572Z,97352.72
2023-03-31T15:15:05.469Z,97357.50
2023-03-31T15:17:38.064Z,97354.91
2023-03-31T15:20:40.693Z,97349.88
2023-03-31T15:23:26.273Z,97350.66
2023-03-31T15:25:58.531Z,97345.09
2023-03-31T15:28:29.057Z,97356.97
2023-03-31T15:31:08.980Z,97351.84
2023-03-31T15:33:37.076Z,97358.16
2023-03-31T15:36:04.177Z,97366.47
2023-03-31T15:38:30.573Z,97373.84
2023-03-31T15:40:57.717Z,97371.34
2023-03-31T15:43:48.903Z,97372.53
2023-03-31T15:46:45.511Z,97374.16
2023-03-31T15:49:20.969Z,97382.69
2023-03-31T15:51:47.784Z,97400.72
2023-03-31T15:54:26.115Z,97389.94
2023-03-31T15:56:59.380Z,97390.00
2023-03-31T15:59:37.964Z,97376.38
2023-03-31T16:02:17.585Z,97377.78
2023-03-31T16:04:48.958Z,97366.94
2023-03-31T16:07:30.994Z,97362.69
2023-03-31T16:10:02.821Z,97357.72
2023-03-31T16:12:37.728Z,97335.75
2023-03-31T16:15:18.613Z,97330.44
2023-03-31T16:18:12.208Z,97327.81
2023-03-31T16:20:43.656Z,97339.31
2023-03-31T16:23:15.857Z,97348.16
2023-03-31T16:25:42.921Z,97353.22
2023-03-31T16:28:27.195Z,97352.25
2023-03-31T16:30:53.489Z,97354.88
2023-03-31T16:33:22.010Z,97364.34
2023-03-31T16:35:51.729Z,97367.97
2023-03-31T16:38:19.229Z,97370.81
2023-03-31T16:40:57.424Z,97375.19
2023-03-31T16:43:25.979Z,97379.41
2023-03-31T16:46:03.118Z,97372.41
2023-03-31T16:48:31.176Z,97381.81
2023-03-31T16:50:59.243Z,97379.66
2023-03-31T16:53:32.280Z,97382.19
2023-03-31T16:55:58.673Z,97398.28
2023-03-31T16:58:25.994Z,97407.69
2023-03-31T17:00:53.360Z,97398.69
2023-03-31T17:03:21.045Z,97425.13
2023-03-31T17:05:50.153Z,97407.81
2023-03-31T17:08:17.023Z,97425.09
2023-03-31T17:10:51.961Z,97426.09
2023-03-31T17:13:18.502Z,97430.97
2023-03-31T17:15:44.849Z,97429.47
2023-03-31T17:18:11.395Z,97431.53
2023-03-31T17:20:38.238Z,97427.38
2023-03-31T17:23:04.706Z,97424.22
2023-03-31T17:25:31.522Z,97413.56
2023-03-31T17:27:57.983Z,97418.78
2023-03-31T17:30:24.289Z,97412.59
2023-03-31T17:32:52.007Z,97426.00
2023-03-31T17:35:19.275Z,97432.97
2023-03-31T17:37:45.836Z,97409.75
2023-03-31T17:40:12.465Z,97410.09
2023-03-31T17:42:38.892Z,97408.63
2023-03-31T17:45:05.882Z,97405.81
2023-03-31T17:47:32.319Z,97410.81
2023-03-31T17:49:58.673Z,97406.94
2023-03-31T17:52:25.132Z,97412.91
2023-03-31T17:54:51.419Z,97407.53
2023-03-31T17:57:17.812Z,97424.66
2023-03-31T17:59:44.515Z,97414.47
2023-03-31T18:02:12.458Z,97425.25
2023-03-31T18:04:38.817Z,97409.63
2023-03-31T18:07:05.611Z,97421.38
2023-03-31T18:09:32.382Z,97424.69
2023-03-31T18:11:58.673Z,97428.16
2023-03-31T18:14:25.247Z,97436.16
2023-03-31T18:16:51.583Z,97428.53
2023-03-31T18:19:18.001Z,97429.50
2023-03-31T18:21:44.314Z,97418.97
2023-03-31T18:24:10.772Z,97431.41
2023-03-31T18:26:37.143Z,97421.63
2023-03-31T18:29:03.528Z,97428.19
2023-03-31T18:31:29.938Z,97416.88
2023-03-31T18:33:56.524Z,97436.94
2023-03-31T18:36:23.578Z,97429.91
2023-03-31T18:38:50.817Z,97437.59
2023-03-31T18:41:17.694Z,97435.28
2023-03-31T18:43:43.998Z,97445.66
2023-03-31T18:46:10.418Z,97435.25
2023-03-31T18:48:36.877Z,97441.34
2023-03-31T18:51:03.340Z,97442.63
2023-03-31T18:53:29.821Z,97448.59
2023-03-31T18:55:58.154Z,97453.00
2023-03-31T18:58:26.096Z,97448.44
2023-03-31T19:00:52.680Z,97451.94
2023-03-31T19:03:19.020Z,97450.25
2023-03-31T19:05:46.058Z,97451.78
2023-03-31T19:08:12.528Z,97448.59
2023-03-31T19:10:38.835Z,97439.25
2023-03-31T19:13:05.757Z,97441.53
2023-03-31T19:15:32.256Z,97450.22
2023-03-31T19:17:58.811Z,97442.78
2023-03-31T19:20:25.400Z,97439.28
2023-03-31T19:22:52.167Z,97446.13
2023-03-31T19:25:19.889Z,97446.66
2023-03-31T19:27:46.557Z,97441.13
2023-03-31T19:30:21.857Z,97445.94
2023-03-31T19:32:49.527Z,97447.63
2023-03-31T19:35:16.945Z,97444.16
2023-03-31T19:37:43.373Z,97441.38
2023-03-31T19:40:11.063Z,97437.66
2023-03-31T19:42:37.456Z,97437.22
2023-03-31T19:45:04.578Z,97440.69
2023-03-31T19:47:31.045Z,97430.34
2023-03-31T19:49:57.354Z,97438.91
2023-03-31T19:52:23.711Z,97421.94
2023-03-31T19:54:50.075Z,97433.88
2023-03-31T19:57:16.506Z,97422.41
2023-03-31T19:59:42.866Z,97427.91
2023-03-31T20:02:12.532Z,97425.00
2023-03-31T20:04:39.466Z,97416.31
2023-03-31T20:07:05.931Z,97419.66
2023-03-31T20:09:32.211Z,97411.50
2023-03-31T20:11:58.735Z,97402.63
2023-03-31T20:14:25.081Z,97421.59
2023-03-31T20:16:51.394Z,97410.47
2023-03-31T20:19:17.944Z,97402.16
2023-03-31T20:21:45.544Z,97411.78
2023-03-31T20:24:16.902Z,97409.56
2023-03-31T20:26:44.281Z,97396.41
2023-03-31T20:29:11.753Z,97405.28
2023-03-31T20:31:39.811Z,97397.63
2023-03-31T20:34:10.262Z,97405.69
2023-03-31T20:36:36.637Z,97396.03
2023-03-31T20:39:03.193Z,97410.56
2023-03-31T20:41:29.945Z,97408.44
2023-03-31T20:43:56.804Z,97398.31
2023-03-31T20:46:23.780Z,97402.88
2023-03-31T20:48:55.412Z,97408.63
2023-03-31T20:51:26.521Z,97408.34
2023-03-31T20:53:53.916Z,97402.56
2023-03-31T20:56:41.211Z,97402.22
2023-03-31T20:59:10.642Z,97402.31
2023-03-31T21:01:37.379Z,97402.53
2023-03-31T21:04:06.047Z,97418.34
2023-03-31T21:06:38.215Z,97412.19
2023-03-31T21:09:04.905Z,97427.03
2023-03-31T21:11:31.290Z,97418.81
2023-03-31T21:13:57.619Z,97422.72
2023-03-31T21:16:24.111Z,97417.75
2023-03-31T21:18:51.092Z,97427.63
2023-03-31T21:21:18.312Z,97415.22
2023-03-31T21:23:45.263Z,97427.63
2023-03-31T21:26:14.377Z,97427.75
2023-03-31T21:28:41.313Z,97426.91
2023-03-31T21:31:13.635Z,97414.19
2023-03-31T21:33:42.443Z,97422.56
2023-03-31T21:36:14.742Z,97420.41
2023-03-31T21:38:41.228Z,97410.97
2023-03-31T21:41:13.381Z,97426.28
2023-03-31T21:43:40.248Z,97422.59
2023-03-31T21:46:06.841Z,97421.47
2023-03-31T21:48:34.202Z,97426.75
2023-03-31T21:51:00.771Z,97429.31
2023-03-31T21:53:28.048Z,97425.16
2023-03-31T21:55:55.057Z,97421.38
2023-03-31T21:58:22.391Z,97413.97
2023-03-31T22:00:48.699Z,97431.72
2023-03-31T22:03:26.436Z,97420.69
2023-03-31T22:06:00.993Z,97423.97
2023-03-31T22:08:28.090Z,97419.66
2023-03-31T22:10:56.150Z,97423.69
2023-03-31T22:13:23.969Z,97420.47
2023-03-31T22:15:50.565Z,97424.53
2023-03-31T22:18:17.187Z,97423.44
2023-03-31T22:20:44.211Z,97425.56
2023-03-31T22:23:10.571Z,97428.97
2023-03-31T22:25:36.852Z,97421.75
2023-03-31T22:28:05.953Z,97433.34
2023-03-31T22:30:33.385Z,97426.41
2023-03-31T22:32:59.718Z,97439.19
2023-03-31T22:35:26.050Z,97440.50
2023-03-31T22:37:52.764Z,97436.69
2023-03-31T22:40:19.231Z,97439.03
2023-03-31T22:42:45.606Z,97440.19
2023-03-31T22:45:12.038Z,97441.72
2023-03-31T22:47:38.349Z,97434.66
2023-03-31T22:50:05.100Z,97420.56
2023-03-31T22:52:31.527Z,97433.41
2023-03-31T22:54:57.829Z,97425.72
2023-03-31T22:57:24.453Z,97433.16
2023-03-31T22:59:50.900Z,97417.69
2023-03-31T23:02:17.277Z,97430.78
2023-03-31T23:04:43.638Z,97419.84
2023-03-31T23:07:10.053Z,97421.25
2023-03-31T23:09:36.349Z,97431.16
2023-03-31T23:12:02.891Z,97429.72
2023-03-31T23:14:29.290Z,97430.22
2023-03-31T23:16:55.632Z,97429.78
2023-03-31T23:19:22.104Z,97437.78
2023-03-31T23:21:48.494Z,97436.88
2023-03-31T23:24:15.139Z,97441.69
2023-03-31T23:26:41.449Z,97433.41
2023-03-31T23:29:07.814Z,97432.88
2023-03-31T23:31:34.493Z,97432.81
2023-03-31T23:34:00.852Z,97438.56
2023-03-31T23:36:28.412Z,97428.78
2023-03-31T23:38:55.868Z,97432.94
2023-03-31T23:41:23.182Z,97430.16
2023-03-31T23:43:50.282Z,97436.50
2023-03-31T23:46:16.774Z,97427.75
2023-03-31T23:48:43.300Z,97419.88
2023-03-31T23:51:09.994Z,97421.97
2023-03-31T23:53:36.496Z,97417.00
2023-03-31T23:56:06.849Z,97420.28
2023-03-31T23:58:33.684Z,97402.53
